• Join FlightAware (Why Join?)
  • Login
  • US Flag 
04:50PM EST


 

Airport Tracker/Info


-or-


 

Live Flight TrackerFlight Track Log ✈ UAL256 ✈ 29-Apr-2013 ✈ KDEN - KORD

Flight Track Log - Related Links

Times and Time Zones

All times are in EDT time to prevent confusion due to time zone crossing. See the UAL256 flight status page for this flight to view local times or setup timezone preferences in your user account.

Time Position Orientation Groundspeed Altitude Reporting Facility
EDT Latitude Longitude Course Direction KTS MPH feet Rate Location/Type
09:13PM 39.8833 -104.6000 57° Northeast 178 205 6,800  Level Denver TRACON
09:14PM 39.9000 -104.5167 75° East 231 266 8,000 1,320 Climbing Denver TRACON
09:15PM 39.9167 -104.4167 78° East 307 353 9,600 1,500 Climbing Denver TRACON
09:16PM 39.9571 -104.0788 66° East  Level FlightAware Approximate
09:16PM 39.9242 -104.3728 77° East 305 351 10,500  Level Denver Center
09:17PM 39.9836 -103.9315 79° East  Level FlightAware Approximate
09:17PM 39.9589 -104.2083 75° East 389 448 11,900  Level Denver Center
09:18PM 40.0078 -103.7845 57° Northeast  Level FlightAware Approximate
09:18PM 39.9561 -104.0472 91° East 412 474 15,000  Level Denver Center
09:19PM 39.9892 -103.9067 73° East 408 470 18,600 3,060 Climbing Denver Center
09:20PM 40.0222 -103.7583 74° East 397 457 21,400 1,800 Climbing Denver Center
09:21PM 40.0486 -103.6003 78° East 422 486 22,400 960 Climbing Denver Center
09:22PM 40.0761 -103.4333 78° East 465 535 23,500 1,200 Climbing Denver Center
09:23PM 40.1031 -103.2614 78° East 478 550 25,000 1,260 Climbing Denver Center
09:24PM 40.1339 -103.0828 77° East 498 573 26,200 1,080 Climbing Denver Center
09:25PM 40.1622 -102.8978 79° East 513 590 27,300 1,260 Climbing Denver Center
09:26PM 40.1903 -102.7117 79° East 517 595 28,900 1,500 Climbing Denver Center
09:27PM 40.2278 -102.5297 75° East 508 585 30,500 1,680 Climbing Denver Center
09:28PM 40.2906 -102.3472 66° East 491 565 32,400 1,560 Climbing Denver Center
09:29PM 40.3422 -102.1919 66° East 485 558 33,800 1,260 Climbing Denver Center
09:30PM 40.4019 -102.0114 66° East 484 557 35,000 1,320 Climbing Denver Center
09:31PM 40.4514 -101.8594 67° East 476 548 36,600 960 Climbing Denver Center
09:32PM 40.5086 -101.6861 66° East 466 536 37,000 180 Climbing Denver Center
09:33PM 40.5583 -101.5347 67° East 471 542 37,000 480 Level Denver Center
09:34PM 40.6072 -101.3819 67° East 474 545 38,000 840 Climbing Denver Center
09:35PM 40.6642 -101.2069 67° East 468 539 38,800 480 Climbing Denver Center
09:36PM 40.7117 -101.0575 67° East 463 533 39,000 60 Climbing Denver Center
09:37PM 40.7658 -100.8856 67° East 456 525 39,000  Level Denver Center
09:38PM 40.8183 -100.7186 67° East 460 529 39,000  Level Denver Center
09:39PM 40.8667 -100.5711 67° East 467 537 39,000  Level Denver Center
09:40PM 40.9031 -100.3878 75° East 466 536 39,000  Level Denver Center
09:41PM 40.9142 -100.2253 85° East 466 536 39,000 -60 Level Denver Center
09:42PM 40.9275 -100.0333 85° East 468 539 38,900  Descending Denver Center
09:43PM 40.9386 -99.8689 85° East 469 540 39,000  Climbing Denver Center
09:45PM 40.9483 -99.7108 85° East 471 542 39,000  Level Denver Center
09:46PM 40.9619 -99.5053 85° East 469 540 39,000  Level Denver Center
09:47PM 40.9722 -99.3367 85° East 464 534 39,000  Level Denver Center
09:48PM 40.9825 -99.1678 85° East 463 533 39,000 -60 Level Denver Center
09:49PM 40.9917 -99.0008 86° East 458 527 38,900 -60 Descending Denver Center
09:50PM 41.0019 -98.8133 86° East 458 527 38,900  Level Denver Center
09:51PM 41.0131 -98.6381 85° East 462 532 39,000  Climbing Denver Center
09:52PM 41.0225 -98.4700 86° East 463 533 39,000  Level Denver Center
09:53PM 41.0328 -98.2653 86° East 465 535 39,000  Level Minneapolis Center
09:54PM 41.0417 -98.0944 86° East 467 537 39,000  Level Minneapolis Center
09:55PM 41.0500 -97.9256 86° East 463 533 39,000  Level Minneapolis Center
09:56PM 41.0583 -97.7558 86° East 463 533 39,000  Level Minneapolis Center
09:58PM 41.0609 -97.5313 89° East  Level FlightAware Approximate
09:58PM 41.0733 -97.4136 89° East 465 535 39,000  Level Minneapolis Center
09:59PM 41.0814 -97.2358 87° East 468 539 39,000  Level Minneapolis Center
10:00PM 41.0886 -97.0608 87° East 474 545 39,000 -60 Level Minneapolis Center
10:01PM 41.0961 -96.8914 87° East 465 535 38,900  Descending Minneapolis Center
10:02PM 41.1042 -96.6897 87° East 460 529 39,000  Climbing Minneapolis Center
10:03PM 41.1108 -96.5175 87° East 468 539 39,000  Level Minneapolis Center
10:04PM 41.1178 -96.3447 87° East 472 543 39,000  Level Minneapolis Center
10:05PM 41.1231 -96.1731 88° East 472 543 39,000  Level Minneapolis Center
10:06PM 41.1289 -95.9997 87° East 472 543 39,000  Level Minneapolis Center
10:07PM 41.1350 -95.8286 87° East 467 537 39,000 -60 Level Minneapolis Center
10:08PM 41.1406 -95.6558 87° East 467 537 38,900  Descending Minneapolis Center
10:09PM 41.1433 -95.4903 89° East 471 542 39,000  Climbing Minneapolis Center
10:10PM 41.1497 -95.2822 88° East 472 543 39,000  Level Minneapolis Center
10:11PM 41.1550 -95.1081 88° East 475 547 39,000  Level Minneapolis Center
10:12PM 41.1581 -94.9336 89° East 475 547 39,000  Level Minneapolis Center
10:13PM 41.1619 -94.7597 88° East 473 544 39,000  Level Minneapolis Center
10:14PM 41.1644 -94.5850 89° East 474 545 39,000  Level Minneapolis Center
10:15PM 41.1697 -94.4103 88° East 474 545 39,000  Level Minneapolis Center
10:16PM 41.1708 -94.2367 89° East 472 543 39,000  Level Minneapolis Center
10:17PM 41.1750 -94.0511 88° East 475 547 39,000  Level Minneapolis Center
10:18PM 41.1775 -93.8792 89° East 472 543 39,000  Level Minneapolis Center
10:19PM 41.1797 -93.7064 89° East 471 542 39,000  Level Minneapolis Center
10:20PM 41.1817 -93.5350 89° East 469 540 39,000 -60 Level Minneapolis Center
10:21PM 41.1844 -93.3603 89° East 473 544 38,900 -60 Descending Minneapolis Center
10:22PM 41.1864 -93.1869 89° East 473 544 38,900  Level Minneapolis Center
10:23PM 41.1875 -93.0131 89° East 473 544 39,000  Climbing Minneapolis Center
10:24PM 41.1886 -92.8361 89° East 478 550 39,000 -360 Level Minneapolis Center
10:26PM 41.1897 -92.6592 89° East 480 552 38,300 -900 Descending Minneapolis Center
10:26PM 41.1897 -92.5219 90° East 467 537 37,500 -960 Descending Chicago Center
10:27PM 41.1900 -92.3511 90° East 464 534 36,700 -1,680 Descending Chicago Center
10:28PM 41.1908 -92.1764 90° East 472 543 34,100 -1,860 Descending Chicago Center
10:29PM 41.1900 -91.9989 90° East 483 556 33,000 -600 Descending Chicago Center
10:30PM 41.1897 -91.8214 90° East 484 557 33,000  Level Chicago Center
10:31PM 41.1881 -91.6269 91° East 486 559 33,000  Level Chicago Center
10:32PM 41.1872 -91.4483 90° East 483 556 33,000  Level Chicago Center
10:33PM 41.1861 -91.2703 90° East 482 555 33,000  Level Chicago Center
10:34PM 41.1847 -91.0914 91° East 484 557 33,000 -60 Level Chicago Center
10:35PM 41.1836 -90.9097 90° East 490 564 32,900  Descending Chicago Center
10:36PM 41.1808 -90.7253 91° East 499 574 33,000 -480 Climbing Chicago Center
10:37PM 41.1783 -90.5394 91° East 502 578 32,000 -1,380 Descending Chicago Center
10:38PM 41.1753 -90.3542 91° East 501 577 30,200 -1,800 Descending Chicago Center
10:39PM 41.1722 -90.1753 91° East 487 560 28,400 -1,860 Descending Chicago Center
10:40PM 41.1728 -89.9922 90° East 494 568 26,500 -1,920 Descending Chicago Center
10:41PM 41.2150 -89.8178 72° East 497 572 24,500 -2,220 Descending Chicago Center
10:42PM 41.2706 -89.6161 70° East 483 556 22,100 -2,160 Descending Chicago Center
10:43PM 41.3144 -89.4533 70° East 470 541 20,100 -2,100 Descending Chicago Center
10:45PM 41.3561 -89.2981 70° East 449 517 17,900 -2,100 Descending Chicago Center
10:46PM 41.3981 -89.1381 71° East 435 501 15,900 -1,920 Descending Chicago Center
10:47PM 41.4386 -88.9861 70° East 438 504 14,100 -1,800 Descending Chicago Center
10:48PM 41.4772 -88.8394 71° East 424 488 12,300 -1,560 Descending Chicago Center
10:49PM 41.5197 -88.6989 68° East 415 478 11,000 -660 Descending Chicago Center
10:50PM 41.5900 -88.5797 52° Northeast 407 468 11,000  Level Chicago Center
10:51PM 41.6600 -88.4603 52° Northeast 408 470 11,000  Level Chicago Center
10:52PM 41.7294 -88.3428 52° Northeast 402 463 11,000 -300 Level Chicago Center
10:53PM 41.7989 -88.2272 51° Northeast 395 455 10,400 -660 Descending Chicago Center
10:54PM 41.8767 -88.1700 29° Northeast 325 374 9,700 -960 Descending Chicago Center
10:55PM 41.9592 -88.1428 14° North 308 354 8,500 -1,260 Descending Chicago Center
10:56PM 42.0303 -88.1306 North 265 305 7,200 -1,680 Descending Chicago Center
10:57PM 42.0903 -88.1528 345° North 240 276 5,200 -1,920 Descending Chicago Center
10:58PM 42.0872 -88.0561 92° East 236 272 3,400 -1,800 Descending Chicago Center